sensor_id;sensor_type;location;lat;lon;timestamp;P1;durP1;ratioP1;P2;durP2;ratioP2
12135;SDS011;6131;56.420;15.548;2022-09-16T00:00:29;6.33;;;1.60;;
12135;SDS011;6131;56.420;15.548;2022-09-16T00:02:56;6.20;;;1.30;;
12135;SDS011;6131;56.420;15.548;2022-09-16T00:05:22;7.13;;;1.50;;
12135;SDS011;6131;56.420;15.548;2022-09-16T00:07:48;4.93;;;1.50;;
12135;SDS011;6131;56.420;15.548;2022-09-16T00:10:14;5.97;;;1.40;;
12135;SDS011;6131;56.420;15.548;2022-09-16T00:12:40;8.67;;;1.63;;
12135;SDS011;6131;56.420;15.548;2022-09-16T00:15:06;6.47;;;1.30;;
12135;SDS011;6131;56.420;15.548;2022-09-16T00:17:32;7.97;;;1.50;;
12135;SDS011;6131;56.420;15.548;2022-09-16T00:19:58;7.43;;;1.50;;
12135;SDS011;6131;56.420;15.548;2022-09-16T00:22:26;6.97;;;1.50;;
12135;SDS011;6131;56.420;15.548;2022-09-16T00:24:52;9.83;;;1.40;;
12135;SDS011;6131;56.420;15.548;2022-09-16T00:27:18;9.97;;;1.50;;
12135;SDS011;6131;56.420;15.548;2022-09-16T00:29:44;4.17;;;1.40;;
12135;SDS011;6131;56.420;15.548;2022-09-16T00:32:10;5.67;;;1.40;;
12135;SDS011;6131;56.420;15.548;2022-09-16T00:34:36;5.57;;;1.40;;
12135;SDS011;6131;56.420;15.548;2022-09-16T00:37:03;8.23;;;1.93;;
12135;SDS011;6131;56.420;15.548;2022-09-16T00:39:32;8.23;;;1.97;;
12135;SDS011;6131;56.420;15.548;2022-09-16T00:41:58;7.73;;;1.60;;
12135;SDS011;6131;56.420;15.548;2022-09-16T00:47:09;7.10;;;1.80;;
12135;SDS011;6131;56.420;15.548;2022-09-16T00:49:35;5.13;;;1.37;;
12135;SDS011;6131;56.420;15.548;2022-09-16T00:52:01;4.87;;;1.63;;
12135;SDS011;6131;56.420;15.548;2022-09-16T00:54:28;4.60;;;1.70;;
12135;SDS011;6131;56.420;15.548;2022-09-16T00:56:55;5.80;;;1.90;;
12135;SDS011;6131;56.420;15.548;2022-09-16T00:59:26;10.30;;;1.83;;
12135;SDS011;6131;56.420;15.548;2022-09-16T01:04:58;4.40;;;1.47;;
12135;SDS011;6131;56.420;15.548;2022-09-16T01:07:27;10.30;;;1.60;;
12135;SDS011;6131;56.420;15.548;2022-09-16T01:09:55;7.63;;;1.40;;
12135;SDS011;6131;56.420;15.548;2022-09-16T01:12:21;7.77;;;1.50;;
12135;SDS011;6131;56.420;15.548;2022-09-16T01:14:47;8.87;;;1.33;;
12135;SDS011;6131;56.420;15.548;2022-09-16T01:25:19;8.10;;;1.67;;
12135;SDS011;6131;56.420;15.548;2022-09-16T01:27:57;7.70;;;1.30;;
12135;SDS011;6131;56.420;15.548;2022-09-16T01:35:28;6.57;;;1.57;;
12135;SDS011;6131;56.420;15.548;2022-09-16T01:38:03;8.93;;;1.53;;
12135;SDS011;6131;56.420;15.548;2022-09-16T01:44:01;5.77;;;1.30;;
12135;SDS011;6131;56.420;15.548;2022-09-16T01:48:56;7.67;;;1.43;;
12135;SDS011;6131;56.420;15.548;2022-09-16T01:54:02;8.80;;;1.93;;
12135;SDS011;6131;56.420;15.548;2022-09-16T01:56:34;6.33;;;1.37;;
12135;SDS011;6131;56.420;15.548;2022-09-16T01:59:10;9.50;;;1.67;;
12135;SDS011;6131;56.420;15.548;2022-09-16T02:01:48;5.97;;;1.37;;
12135;SDS011;6131;56.420;15.548;2022-09-16T02:04:18;10.60;;;1.70;;
12135;SDS011;6131;56.420;15.548;2022-09-16T02:06:45;9.13;;;1.50;;
12135;SDS011;6131;56.420;15.548;2022-09-16T02:09:25;4.93;;;1.20;;
12135;SDS011;6131;56.420;15.548;2022-09-16T02:11:52;8.63;;;1.40;;
12135;SDS011;6131;56.420;15.548;2022-09-16T02:14:23;9.87;;;2.03;;
12135;SDS011;6131;56.420;15.548;2022-09-16T02:19:17;6.80;;;1.80;;
12135;SDS011;6131;56.420;15.548;2022-09-16T02:21:45;9.20;;;1.47;;
12135;SDS011;6131;56.420;15.548;2022-09-16T02:24:15;3.73;;;1.23;;
12135;SDS011;6131;56.420;15.548;2022-09-16T02:26:44;9.03;;;1.33;;
12135;SDS011;6131;56.420;15.548;2022-09-16T02:29:12;5.00;;;1.27;;
12135;SDS011;6131;56.420;15.548;2022-09-16T02:31:39;7.97;;;1.63;;
12135;SDS011;6131;56.420;15.548;2022-09-16T02:34:08;7.50;;;1.30;;
12135;SDS011;6131;56.420;15.548;2022-09-16T02:36:36;11.60;;;1.90;;
12135;SDS011;6131;56.420;15.548;2022-09-16T02:39:08;10.30;;;1.37;;
12135;SDS011;6131;56.420;15.548;2022-09-16T02:41:36;5.53;;;1.60;;
12135;SDS011;6131;56.420;15.548;2022-09-16T02:44:03;7.67;;;1.50;;
12135;SDS011;6131;56.420;15.548;2022-09-16T02:46:33;3.03;;;1.43;;
12135;SDS011;6131;56.420;15.548;2022-09-16T02:57:11;9.77;;;1.60;;
12135;SDS011;6131;56.420;15.548;2022-09-16T02:59:38;6.90;;;1.40;;
12135;SDS011;6131;56.420;15.548;2022-09-16T03:02:04;5.37;;;1.17;;
12135;SDS011;6131;56.420;15.548;2022-09-16T03:04:30;7.10;;;1.23;;
12135;SDS011;6131;56.420;15.548;2022-09-16T03:06:56;7.73;;;1.47;;
12135;SDS011;6131;56.420;15.548;2022-09-16T03:09:22;9.63;;;1.60;;
12135;SDS011;6131;56.420;15.548;2022-09-16T03:20:21;10.47;;;1.97;;
12135;SDS011;6131;56.420;15.548;2022-09-16T03:28:01;8.80;;;1.50;;
12135;SDS011;6131;56.420;15.548;2022-09-16T03:30:31;7.80;;;1.40;;
12135;SDS011;6131;56.420;15.548;2022-09-16T03:32:59;6.33;;;1.40;;
12135;SDS011;6131;56.420;15.548;2022-09-16T03:35:36;6.23;;;1.27;;
12135;SDS011;6131;56.420;15.548;2022-09-16T03:38:03;8.33;;;1.50;;
12135;SDS011;6131;56.420;15.548;2022-09-16T03:40:30;10.33;;;2.27;;
12135;SDS011;6131;56.420;15.548;2022-09-16T03:42:57;6.77;;;1.70;;
12135;SDS011;6131;56.420;15.548;2022-09-16T03:45:23;6.93;;;1.60;;
12135;SDS011;6131;56.420;15.548;2022-09-16T03:47:51;6.87;;;1.43;;
12135;SDS011;6131;56.420;15.548;2022-09-16T03:50:18;6.50;;;1.67;;
12135;SDS011;6131;56.420;15.548;2022-09-16T03:52:44;8.80;;;1.50;;
12135;SDS011;6131;56.420;15.548;2022-09-16T03:55:10;4.70;;;1.50;;
12135;SDS011;6131;56.420;15.548;2022-09-16T03:57:37;7.67;;;1.20;;
12135;SDS011;6131;56.420;15.548;2022-09-16T04:00:04;9.33;;;1.50;;
12135;SDS011;6131;56.420;15.548;2022-09-16T04:02:30;6.33;;;1.27;;
12135;SDS011;6131;56.420;15.548;2022-09-16T04:04:56;3.93;;;1.20;;
12135;SDS011;6131;56.420;15.548;2022-09-16T04:07:22;5.53;;;1.60;;
12135;SDS011;6131;56.420;15.548;2022-09-16T04:09:48;8.37;;;1.73;;
12135;SDS011;6131;56.420;15.548;2022-09-16T04:12:14;4.27;;;1.40;;
12135;SDS011;6131;56.420;15.548;2022-09-16T04:14:40;6.00;;;1.20;;
12135;SDS011;6131;56.420;15.548;2022-09-16T04:17:06;8.03;;;1.63;;
12135;SDS011;6131;56.420;15.548;2022-09-16T04:19:32;4.43;;;1.60;;
12135;SDS011;6131;56.420;15.548;2022-09-16T04:21:58;5.53;;;1.37;;
12135;SDS011;6131;56.420;15.548;2022-09-16T04:24:25;7.23;;;1.20;;
12135;SDS011;6131;56.420;15.548;2022-09-16T04:26:51;10.67;;;1.50;;
12135;SDS011;6131;56.420;15.548;2022-09-16T04:29:17;6.70;;;1.60;;
12135;SDS011;6131;56.420;15.548;2022-09-16T04:31:43;7.43;;;1.53;;
12135;SDS011;6131;56.420;15.548;2022-09-16T04:34:09;6.47;;;1.80;;
12135;SDS011;6131;56.420;15.548;2022-09-16T04:36:36;4.80;;;1.23;;
12135;SDS011;6131;56.420;15.548;2022-09-16T04:39:03;5.27;;;1.60;;
12135;SDS011;6131;56.420;15.548;2022-09-16T04:41:30;8.93;;;1.20;;
12135;SDS011;6131;56.420;15.548;2022-09-16T04:43:57;5.20;;;1.23;;
12135;SDS011;6131;56.420;15.548;2022-09-16T04:46:23;6.30;;;1.47;;
12135;SDS011;6131;56.420;15.548;2022-09-16T04:48:50;8.33;;;1.57;;
12135;SDS011;6131;56.420;15.548;2022-09-16T04:51:17;8.10;;;1.50;;
12135;SDS011;6131;56.420;15.548;2022-09-16T04:53:43;5.37;;;1.53;;
12135;SDS011;6131;56.420;15.548;2022-09-16T04:56:16;5.27;;;1.50;;
12135;SDS011;6131;56.420;15.548;2022-09-16T04:58:43;4.80;;;1.27;;
12135;SDS011;6131;56.420;15.548;2022-09-16T05:01:11;8.07;;;1.43;;
12135;SDS011;6131;56.420;15.548;2022-09-16T05:03:38;4.30;;;1.23;;
12135;SDS011;6131;56.420;15.548;2022-09-16T05:06:05;6.20;;;1.30;;
12135;SDS011;6131;56.420;15.548;2022-09-16T05:08:32;6.13;;;1.30;;
12135;SDS011;6131;56.420;15.548;2022-09-16T05:11:03;10.73;;;1.77;;
12135;SDS011;6131;56.420;15.548;2022-09-16T05:13:29;6.27;;;1.40;;
12135;SDS011;6131;56.420;15.548;2022-09-16T05:15:59;7.60;;;1.53;;
12135;SDS011;6131;56.420;15.548;2022-09-16T05:18:25;4.83;;;1.17;;
12135;SDS011;6131;56.420;15.548;2022-09-16T05:20:55;4.33;;;1.17;;
12135;SDS011;6131;56.420;15.548;2022-09-16T05:23:21;4.90;;;1.20;;
12135;SDS011;6131;56.420;15.548;2022-09-16T05:25:47;5.40;;;1.30;;
12135;SDS011;6131;56.420;15.548;2022-09-16T05:28:13;5.90;;;1.10;;
12135;SDS011;6131;56.420;15.548;2022-09-16T05:30:39;4.70;;;1.30;;
12135;SDS011;6131;56.420;15.548;2022-09-16T05:33:05;5.77;;;1.40;;
12135;SDS011;6131;56.420;15.548;2022-09-16T05:35:31;7.20;;;1.13;;
12135;SDS011;6131;56.420;15.548;2022-09-16T05:37:57;4.73;;;1.40;;
12135;SDS011;6131;56.420;15.548;2022-09-16T05:40:23;5.13;;;1.03;;
12135;SDS011;6131;56.420;15.548;2022-09-16T05:42:51;4.33;;;1.10;;
12135;SDS011;6131;56.420;15.548;2022-09-16T05:45:17;5.43;;;1.30;;
12135;SDS011;6131;56.420;15.548;2022-09-16T05:47:52;4.03;;;1.30;;
12135;SDS011;6131;56.420;15.548;2022-09-16T05:50:18;2.80;;;1.00;;
12135;SDS011;6131;56.420;15.548;2022-09-16T05:52:44;5.17;;;1.30;;
12135;SDS011;6131;56.420;15.548;2022-09-16T05:55:10;2.63;;;1.07;;
12135;SDS011;6131;56.420;15.548;2022-09-16T05:57:36;6.10;;;1.40;;
12135;SDS011;6131;56.420;15.548;2022-09-16T06:00:03;6.87;;;1.33;;
12135;SDS011;6131;56.420;15.548;2022-09-16T06:02:30;7.77;;;1.40;;
12135;SDS011;6131;56.420;15.548;2022-09-16T06:04:56;4.97;;;1.10;;
12135;SDS011;6131;56.420;15.548;2022-09-16T06:07:23;3.30;;;1.00;;
12135;SDS011;6131;56.420;15.548;2022-09-16T06:09:49;5.90;;;1.40;;
12135;SDS011;6131;56.420;15.548;2022-09-16T06:12:15;4.17;;;1.00;;
12135;SDS011;6131;56.420;15.548;2022-09-16T06:14:41;5.97;;;1.40;;
12135;SDS011;6131;56.420;15.548;2022-09-16T06:17:07;3.27;;;1.57;;
12135;SDS011;6131;56.420;15.548;2022-09-16T06:19:33;4.53;;;1.00;;
12135;SDS011;6131;56.420;15.548;2022-09-16T06:21:59;6.03;;;1.23;;
12135;SDS011;6131;56.420;15.548;2022-09-16T06:24:25;5.93;;;1.30;;
12135;SDS011;6131;56.420;15.548;2022-09-16T06:26:51;4.93;;;1.27;;
12135;SDS011;6131;56.420;15.548;2022-09-16T06:29:17;8.10;;;1.20;;
12135;SDS011;6131;56.420;15.548;2022-09-16T06:31:43;5.13;;;1.00;;
12135;SDS011;6131;56.420;15.548;2022-09-16T06:34:12;5.33;;;1.43;;
12135;SDS011;6131;56.420;15.548;2022-09-16T06:36:39;3.17;;;1.00;;
12135;SDS011;6131;56.420;15.548;2022-09-16T06:39:05;7.53;;;1.47;;
12135;SDS011;6131;56.420;15.548;2022-09-16T06:41:31;3.67;;;1.10;;
12135;SDS011;6131;56.420;15.548;2022-09-16T06:43:58;4.73;;;1.20;;
12135;SDS011;6131;56.420;15.548;2022-09-16T06:46:25;4.87;;;1.13;;
12135;SDS011;6131;56.420;15.548;2022-09-16T06:48:52;7.33;;;1.30;;
12135;SDS011;6131;56.420;15.548;2022-09-16T06:51:21;3.50;;;0.87;;
12135;SDS011;6131;56.420;15.548;2022-09-16T06:53:47;5.60;;;1.40;;
12135;SDS011;6131;56.420;15.548;2022-09-16T06:56:15;5.30;;;1.10;;
12135;SDS011;6131;56.420;15.548;2022-09-16T06:58:42;4.90;;;1.10;;
12135;SDS011;6131;56.420;15.548;2022-09-16T07:01:19;4.13;;;1.00;;
12135;SDS011;6131;56.420;15.548;2022-09-16T07:03:46;4.00;;;1.30;;
12135;SDS011;6131;56.420;15.548;2022-09-16T07:06:13;6.77;;;1.20;;
12135;SDS011;6131;56.420;15.548;2022-09-16T07:08:40;3.60;;;1.00;;
12135;SDS011;6131;56.420;15.548;2022-09-16T07:11:07;5.00;;;1.30;;
12135;SDS011;6131;56.420;15.548;2022-09-16T07:13:34;4.30;;;1.10;;
12135;SDS011;6131;56.420;15.548;2022-09-16T07:16:01;5.47;;;1.17;;
12135;SDS011;6131;56.420;15.548;2022-09-16T07:18:28;4.67;;;1.13;;
12135;SDS011;6131;56.420;15.548;2022-09-16T07:21:01;4.70;;;1.00;;
12135;SDS011;6131;56.420;15.548;2022-09-16T07:23:30;7.27;;;1.63;;
12135;SDS011;6131;56.420;15.548;2022-09-16T07:26:01;6.20;;;0.90;;
12135;SDS011;6131;56.420;15.548;2022-09-16T07:28:27;4.13;;;1.10;;
12135;SDS011;6131;56.420;15.548;2022-09-16T07:30:53;2.83;;;1.10;;
12135;SDS011;6131;56.420;15.548;2022-09-16T07:33:19;5.50;;;1.13;;
12135;SDS011;6131;56.420;15.548;2022-09-16T07:35:45;4.53;;;1.03;;
12135;SDS011;6131;56.420;15.548;2022-09-16T07:38:11;3.77;;;0.93;;
12135;SDS011;6131;56.420;15.548;2022-09-16T07:40:37;3.20;;;0.87;;
12135;SDS011;6131;56.420;15.548;2022-09-16T07:43:05;3.93;;;0.80;;
12135;SDS011;6131;56.420;15.548;2022-09-16T07:45:31;2.27;;;0.90;;
12135;SDS011;6131;56.420;15.548;2022-09-16T07:47:57;3.37;;;0.77;;
12135;SDS011;6131;56.420;15.548;2022-09-16T07:50:23;3.73;;;0.93;;
12135;SDS011;6131;56.420;15.548;2022-09-16T07:52:53;3.87;;;0.87;;
12135;SDS011;6131;56.420;15.548;2022-09-16T07:55:19;3.40;;;0.90;;
12135;SDS011;6131;56.420;15.548;2022-09-16T07:57:45;5.60;;;1.00;;
12135;SDS011;6131;56.420;15.548;2022-09-16T08:00:11;2.87;;;0.97;;
12135;SDS011;6131;56.420;15.548;2022-09-16T08:02:37;3.17;;;0.90;;
12135;SDS011;6131;56.420;15.548;2022-09-16T08:05:03;3.17;;;0.90;;
12135;SDS011;6131;56.420;15.548;2022-09-16T08:07:29;3.70;;;0.70;;
12135;SDS011;6131;56.420;15.548;2022-09-16T08:09:55;1.83;;;0.80;;
12135;SDS011;6131;56.420;15.548;2022-09-16T08:12:21;3.93;;;1.00;;
12135;SDS011;6131;56.420;15.548;2022-09-16T08:14:47;2.27;;;0.80;;
12135;SDS011;6131;56.420;15.548;2022-09-16T08:17:13;4.83;;;1.10;;
12135;SDS011;6131;56.420;15.548;2022-09-16T08:19:40;5.30;;;0.90;;
12135;SDS011;6131;56.420;15.548;2022-09-16T08:22:06;3.73;;;0.87;;
12135;SDS011;6131;56.420;15.548;2022-09-16T08:24:32;4.10;;;1.00;;
12135;SDS011;6131;56.420;15.548;2022-09-16T08:26:58;7.50;;;0.90;;
12135;SDS011;6131;56.420;15.548;2022-09-16T08:29:24;3.07;;;1.33;;
12135;SDS011;6131;56.420;15.548;2022-09-16T08:31:51;4.20;;;0.90;;
12135;SDS011;6131;56.420;15.548;2022-09-16T08:34:17;5.07;;;0.97;;
12135;SDS011;6131;56.420;15.548;2022-09-16T08:36:43;3.40;;;1.00;;
12135;SDS011;6131;56.420;15.548;2022-09-16T08:39:09;2.17;;;0.70;;
12135;SDS011;6131;56.420;15.548;2022-09-16T08:49:55;1.97;;;0.80;;
12135;SDS011;6131;56.420;15.548;2022-09-16T08:52:34;3.70;;;0.80;;
12135;SDS011;6131;56.420;15.548;2022-09-16T08:55:02;3.97;;;0.70;;
12135;SDS011;6131;56.420;15.548;2022-09-16T08:57:32;2.50;;;0.80;;
12135;SDS011;6131;56.420;15.548;2022-09-16T09:00:19;3.37;;;0.60;;
12135;SDS011;6131;56.420;15.548;2022-09-16T09:10:46;1.27;;;0.60;;
12135;SDS011;6131;56.420;15.548;2022-09-16T09:26:24;1.87;;;0.70;;
12135;SDS011;6131;56.420;15.548;2022-09-16T09:29:09;1.70;;;0.70;;
12135;SDS011;6131;56.420;15.548;2022-09-16T09:31:42;1.67;;;0.67;;
12135;SDS011;6131;56.420;15.548;2022-09-16T09:39:16;2.57;;;0.63;;
12135;SDS011;6131;56.420;15.548;2022-09-16T09:41:46;2.70;;;0.60;;
12135;SDS011;6131;56.420;15.548;2022-09-16T09:44:23;1.30;;;0.60;;
12135;SDS011;6131;56.420;15.548;2022-09-16T09:46:55;1.97;;;0.50;;
12135;SDS011;6131;56.420;15.548;2022-09-16T09:49:26;1.67;;;0.77;;
12135;SDS011;6131;56.420;15.548;2022-09-16T09:54:30;1.30;;;0.60;;
12135;SDS011;6131;56.420;15.548;2022-09-16T10:00:01;3.30;;;0.60;;
12135;SDS011;6131;56.420;15.548;2022-09-16T10:02:32;3.37;;;0.77;;
12135;SDS011;6131;56.420;15.548;2022-09-16T10:04:59;1.47;;;0.67;;
12135;SDS011;6131;56.420;15.548;2022-09-16T10:07:26;1.33;;;0.50;;
12135;SDS011;6131;56.420;15.548;2022-09-16T10:09:57;4.00;;;0.90;;
12135;SDS011;6131;56.420;15.548;2022-09-16T10:14:53;1.97;;;0.40;;
12135;SDS011;6131;56.420;15.548;2022-09-16T10:17:19;3.63;;;0.73;;
12135;SDS011;6131;56.420;15.548;2022-09-16T10:19:55;2.07;;;0.63;;
12135;SDS011;6131;56.420;15.548;2022-09-16T10:22:29;2.57;;;0.97;;
12135;SDS011;6131;56.420;15.548;2022-09-16T10:24:59;0.77;;;0.40;;
12135;SDS011;6131;56.420;15.548;2022-09-16T10:27:33;1.90;;;0.43;;
12135;SDS011;6131;56.420;15.548;2022-09-16T10:35:16;1.53;;;0.60;;
12135;SDS011;6131;56.420;15.548;2022-09-16T10:37:48;2.93;;;0.57;;
12135;SDS011;6131;56.420;15.548;2022-09-16T10:40:15;1.33;;;0.60;;
12135;SDS011;6131;56.420;15.548;2022-09-16T10:42:45;1.40;;;0.30;;
12135;SDS011;6131;56.420;15.548;2022-09-16T10:45:13;1.63;;;0.53;;
12135;SDS011;6131;56.420;15.548;2022-09-16T10:47:40;1.13;;;0.60;;
12135;SDS011;6131;56.420;15.548;2022-09-16T10:50:16;1.53;;;0.57;;
12135;SDS011;6131;56.420;15.548;2022-09-16T10:52:44;0.80;;;0.40;;
12135;SDS011;6131;56.420;15.548;2022-09-16T10:57:48;3.47;;;0.57;;
12135;SDS011;6131;56.420;15.548;2022-09-16T11:00:16;2.37;;;0.60;;
12135;SDS011;6131;56.420;15.548;2022-09-16T11:57:19;1.13;;;0.47;;
12135;SDS011;6131;56.420;15.548;2022-09-16T11:59:49;2.73;;;0.63;;
12135;SDS011;6131;56.420;15.548;2022-09-16T12:07:24;1.60;;;0.60;;
12135;SDS011;6131;56.420;15.548;2022-09-16T12:09:53;1.07;;;0.50;;
12135;SDS011;6131;56.420;15.548;2022-09-16T12:12:41;2.90;;;0.93;;
12135;SDS011;6131;56.420;15.548;2022-09-16T12:17:40;2.90;;;0.60;;
12135;SDS011;6131;56.420;15.548;2022-09-16T12:22:46;2.43;;;0.63;;
12135;SDS011;6131;56.420;15.548;2022-09-16T12:25:14;1.80;;;0.67;;
12135;SDS011;6131;56.420;15.548;2022-09-16T12:27:46;1.60;;;0.60;;
12135;SDS011;6131;56.420;15.548;2022-09-16T12:30:15;3.07;;;0.60;;
12135;SDS011;6131;56.420;15.548;2022-09-16T12:32:50;2.33;;;0.57;;
12135;SDS011;6131;56.420;15.548;2022-09-16T12:38:19;1.37;;;0.40;;
12135;SDS011;6131;56.420;15.548;2022-09-16T12:41:11;4.60;;;0.60;;
12135;SDS011;6131;56.420;15.548;2022-09-16T12:49:11;2.37;;;0.60;;
12135;SDS011;6131;56.420;15.548;2022-09-16T12:52:01;2.20;;;0.50;;
12135;SDS011;6131;56.420;15.548;2022-09-16T13:02:15;3.20;;;0.50;;
12135;SDS011;6131;56.420;15.548;2022-09-16T13:05:29;1.17;;;0.40;;
12135;SDS011;6131;56.420;15.548;2022-09-16T13:07:32;1.20;;;0.57;;
12135;SDS011;6131;56.420;15.548;2022-09-16T13:10:01;0.83;;;0.40;;
12135;SDS011;6131;56.420;15.548;2022-09-16T13:12:27;1.00;;;0.50;;
12135;SDS011;6131;56.420;15.548;2022-09-16T13:14:58;1.90;;;0.60;;
12135;SDS011;6131;56.420;15.548;2022-09-16T13:17:31;1.37;;;0.40;;
12135;SDS011;6131;56.420;15.548;2022-09-16T13:20:04;3.37;;;0.60;;
12135;SDS011;6131;56.420;15.548;2022-09-16T13:22:36;3.43;;;0.57;;
12135;SDS011;6131;56.420;15.548;2022-09-16T13:28:00;0.87;;;0.40;;
12135;SDS011;6131;56.420;15.548;2022-09-16T13:30:28;1.80;;;0.30;;
12135;SDS011;6131;56.420;15.548;2022-09-16T13:32:56;0.70;;;0.40;;
12135;SDS011;6131;56.420;15.548;2022-09-16T13:35:39;1.83;;;0.47;;
12135;SDS011;6131;56.420;15.548;2022-09-16T13:40:59;0.90;;;0.37;;
12135;SDS011;6131;56.420;15.548;2022-09-16T13:46:11;0.87;;;0.40;;
12135;SDS011;6131;56.420;15.548;2022-09-16T13:48:46;0.63;;;0.30;;
12135;SDS011;6131;56.420;15.548;2022-09-16T13:51:17;1.27;;;0.40;;
12135;SDS011;6131;56.420;15.548;2022-09-16T13:53:47;0.93;;;0.50;;
12135;SDS011;6131;56.420;15.548;2022-09-16T14:01:23;1.87;;;0.40;;
12135;SDS011;6131;56.420;15.548;2022-09-16T14:06:49;0.87;;;0.40;;
12135;SDS011;6131;56.420;15.548;2022-09-16T14:14:17;1.02;;;0.40;;
12135;SDS011;6131;56.420;15.548;2022-09-16T14:16:44;1.60;;;0.30;;
12135;SDS011;6131;56.420;15.548;2022-09-16T14:24:49;1.33;;;0.40;;
12135;SDS011;6131;56.420;15.548;2022-09-16T14:27:20;0.60;;;0.25;;
12135;SDS011;6131;56.420;15.548;2022-09-16T14:32:22;0.90;;;0.40;;
12135;SDS011;6131;56.420;15.548;2022-09-16T14:34:49;0.95;;;0.28;;
12135;SDS011;6131;56.420;15.548;2022-09-16T14:37:16;1.25;;;0.30;;
12135;SDS011;6131;56.420;15.548;2022-09-16T14:39:43;0.65;;;0.30;;
12135;SDS011;6131;56.420;15.548;2022-09-16T14:42:13;0.95;;;0.50;;
12135;SDS011;6131;56.420;15.548;2022-09-16T14:44:47;1.05;;;0.30;;
12135;SDS011;6131;56.420;15.548;2022-09-16T14:47:21;0.88;;;0.30;;
12135;SDS011;6131;56.420;15.548;2022-09-16T14:49:50;0.68;;;0.35;;
12135;SDS011;6131;56.420;15.548;2022-09-16T14:52:21;0.97;;;0.30;;
12135;SDS011;6131;56.420;15.548;2022-09-16T14:54:48;0.57;;;0.30;;
12135;SDS011;6131;56.420;15.548;2022-09-16T14:57:21;0.67;;;0.20;;
12135;SDS011;6131;56.420;15.548;2022-09-16T14:59:48;0.60;;;0.20;;
12135;SDS011;6131;56.420;15.548;2022-09-16T15:04:49;0.50;;;0.40;;
12135;SDS011;6131;56.420;15.548;2022-09-16T15:07:17;1.70;;;0.60;;
12135;SDS011;6131;56.420;15.548;2022-09-16T15:09:55;2.83;;;0.40;;
12135;SDS011;6131;56.420;15.548;2022-09-16T15:13:07;0.73;;;0.40;;
12135;SDS011;6131;56.420;15.548;2022-09-16T15:15:22;0.83;;;0.23;;
12135;SDS011;6131;56.420;15.548;2022-09-16T15:18:05;1.57;;;0.40;;
12135;SDS011;6131;56.420;15.548;2022-09-16T15:20:33;1.20;;;0.40;;
12135;SDS011;6131;56.420;15.548;2022-09-16T15:23:01;0.70;;;0.30;;
12135;SDS011;6131;56.420;15.548;2022-09-16T15:25:29;0.60;;;0.40;;
12135;SDS011;6131;56.420;15.548;2022-09-16T15:28:05;0.77;;;0.30;;
12135;SDS011;6131;56.420;15.548;2022-09-16T15:30:32;0.83;;;0.40;;
12135;SDS011;6131;56.420;15.548;2022-09-16T15:32:58;1.00;;;0.57;;
12135;SDS011;6131;56.420;15.548;2022-09-16T15:35:24;0.83;;;0.20;;
12135;SDS011;6131;56.420;15.548;2022-09-16T15:37:51;0.60;;;0.40;;
12135;SDS011;6131;56.420;15.548;2022-09-16T15:45:35;1.17;;;0.43;;
12135;SDS011;6131;56.420;15.548;2022-09-16T15:48:05;0.47;;;0.37;;
12135;SDS011;6131;56.420;15.548;2022-09-16T15:50:39;1.27;;;0.30;;
12135;SDS011;6131;56.420;15.548;2022-09-16T15:53:18;1.30;;;0.30;;
12135;SDS011;6131;56.420;15.548;2022-09-16T16:01:02;1.07;;;0.50;;
12135;SDS011;6131;56.420;15.548;2022-09-16T16:06:14;1.80;;;0.50;;
12135;SDS011;6131;56.420;15.548;2022-09-16T16:08:47;0.83;;;0.40;;
12135;SDS011;6131;56.420;15.548;2022-09-16T16:11:14;2.00;;;0.30;;
12135;SDS011;6131;56.420;15.548;2022-09-16T16:13:41;1.47;;;0.30;;
12135;SDS011;6131;56.420;15.548;2022-09-16T16:16:08;1.17;;;0.50;;
12135;SDS011;6131;56.420;15.548;2022-09-16T16:18:34;1.23;;;0.50;;
12135;SDS011;6131;56.420;15.548;2022-09-16T16:21:05;0.90;;;0.40;;
12135;SDS011;6131;56.420;15.548;2022-09-16T16:23:32;1.47;;;0.40;;
12135;SDS011;6131;56.420;15.548;2022-09-16T16:25:58;0.50;;;0.30;;
12135;SDS011;6131;56.420;15.548;2022-09-16T16:28:24;0.97;;;0.20;;
12135;SDS011;6131;56.420;15.548;2022-09-16T16:30:50;0.83;;;0.47;;
12135;SDS011;6131;56.420;15.548;2022-09-16T16:33:16;0.73;;;0.33;;
12135;SDS011;6131;56.420;15.548;2022-09-16T16:35:42;0.80;;;0.50;;
12135;SDS011;6131;56.420;15.548;2022-09-16T16:38:08;1.13;;;0.40;;
12135;SDS011;6131;56.420;15.548;2022-09-16T16:40:34;1.13;;;0.30;;
12135;SDS011;6131;56.420;15.548;2022-09-16T16:43:00;0.90;;;0.30;;
12135;SDS011;6131;56.420;15.548;2022-09-16T16:45:26;1.00;;;0.50;;
12135;SDS011;6131;56.420;15.548;2022-09-16T16:47:53;1.10;;;0.40;;
12135;SDS011;6131;56.420;15.548;2022-09-16T16:50:20;1.20;;;0.50;;
12135;SDS011;6131;56.420;15.548;2022-09-16T16:52:48;1.57;;;0.33;;
12135;SDS011;6131;56.420;15.548;2022-09-16T16:55:15;1.03;;;0.60;;
12135;SDS011;6131;56.420;15.548;2022-09-16T16:57:41;1.17;;;0.40;;
12135;SDS011;6131;56.420;15.548;2022-09-16T17:00:08;3.43;;;0.60;;
12135;SDS011;6131;56.420;15.548;2022-09-16T17:02:35;0.67;;;0.53;;
12135;SDS011;6131;56.420;15.548;2022-09-16T17:05:01;0.90;;;0.70;;
12135;SDS011;6131;56.420;15.548;2022-09-16T17:07:27;2.17;;;0.40;;
12135;SDS011;6131;56.420;15.548;2022-09-16T17:09:54;0.97;;;0.40;;
12135;SDS011;6131;56.420;15.548;2022-09-16T17:12:23;1.60;;;0.53;;
12135;SDS011;6131;56.420;15.548;2022-09-16T17:14:49;0.93;;;0.50;;
12135;SDS011;6131;56.420;15.548;2022-09-16T17:17:15;0.67;;;0.50;;
12135;SDS011;6131;56.420;15.548;2022-09-16T17:19:41;1.87;;;0.60;;
12135;SDS011;6131;56.420;15.548;2022-09-16T17:22:07;3.27;;;0.60;;
12135;SDS011;6131;56.420;15.548;2022-09-16T17:24:33;1.50;;;0.50;;
12135;SDS011;6131;56.420;15.548;2022-09-16T17:26:59;1.80;;;0.70;;
12135;SDS011;6131;56.420;15.548;2022-09-16T17:29:25;2.60;;;0.50;;
12135;SDS011;6131;56.420;15.548;2022-09-16T17:31:51;1.27;;;0.50;;
12135;SDS011;6131;56.420;15.548;2022-09-16T17:34:20;1.07;;;0.50;;
12135;SDS011;6131;56.420;15.548;2022-09-16T17:36:46;0.60;;;0.40;;
12135;SDS011;6131;56.420;15.548;2022-09-16T17:39:13;1.23;;;0.50;;
12135;SDS011;6131;56.420;15.548;2022-09-16T17:41:40;0.87;;;0.40;;
12135;SDS011;6131;56.420;15.548;2022-09-16T17:44:10;0.57;;;0.30;;
12135;SDS011;6131;56.420;15.548;2022-09-16T17:46:37;0.80;;;0.50;;
12135;SDS011;6131;56.420;15.548;2022-09-16T17:49:04;0.97;;;0.50;;
12135;SDS011;6131;56.420;15.548;2022-09-16T17:51:31;1.13;;;0.60;;
12135;SDS011;6131;56.420;15.548;2022-09-16T17:53:57;0.70;;;0.47;;
12135;SDS011;6131;56.420;15.548;2022-09-16T17:56:23;1.20;;;0.40;;
12135;SDS011;6131;56.420;15.548;2022-09-16T17:58:50;1.97;;;0.40;;
12135;SDS011;6131;56.420;15.548;2022-09-16T18:01:17;0.60;;;0.30;;
12135;SDS011;6131;56.420;15.548;2022-09-16T18:03:44;0.73;;;0.40;;
12135;SDS011;6131;56.420;15.548;2022-09-16T18:06:11;0.60;;;0.50;;
12135;SDS011;6131;56.420;15.548;2022-09-16T18:08:38;0.70;;;0.37;;
12135;SDS011;6131;56.420;15.548;2022-09-16T18:11:04;1.47;;;0.50;;
12135;SDS011;6131;56.420;15.548;2022-09-16T18:13:30;0.80;;;0.60;;
12135;SDS011;6131;56.420;15.548;2022-09-16T18:16:00;1.23;;;0.63;;
12135;SDS011;6131;56.420;15.548;2022-09-16T18:18:27;3.30;;;0.80;;
12135;SDS011;6131;56.420;15.548;2022-09-16T18:20:55;0.63;;;0.63;;
12135;SDS011;6131;56.420;15.548;2022-09-16T18:23:22;1.73;;;0.60;;
12135;SDS011;6131;56.420;15.548;2022-09-16T18:25:48;2.00;;;0.60;;
12135;SDS011;6131;56.420;15.548;2022-09-16T18:28:14;2.17;;;0.63;;
12135;SDS011;6131;56.420;15.548;2022-09-16T18:30:40;1.03;;;0.70;;
12135;SDS011;6131;56.420;15.548;2022-09-16T18:33:08;0.77;;;0.60;;
12135;SDS011;6131;56.420;15.548;2022-09-16T18:35:34;0.90;;;0.60;;
12135;SDS011;6131;56.420;15.548;2022-09-16T18:38:06;0.50;;;0.40;;
12135;SDS011;6131;56.420;15.548;2022-09-16T18:40:32;1.17;;;0.40;;
12135;SDS011;6131;56.420;15.548;2022-09-16T18:43:00;0.53;;;0.50;;